sensor_id;sensor_type;location;lat;lon;timestamp;P1;durP1;ratioP1;P2;durP2;ratioP2
72951;SDS011;61102;51.956;5.878;2023-03-23T00:00:00;5.93;;;1.30;;
72951;SDS011;61102;51.956;5.878;2023-03-23T00:02:27;6.25;;;1.90;;
72951;SDS011;61102;51.956;5.878;2023-03-23T00:04:54;4.50;;;1.30;;
72951;SDS011;61102;51.956;5.878;2023-03-23T00:07:22;6.25;;;1.50;;
72951;SDS011;61102;51.956;5.878;2023-03-23T00:09:53;4.57;;;1.27;;
72951;SDS011;61102;51.956;5.878;2023-03-23T00:12:20;5.57;;;1.30;;
72951;SDS011;61102;51.956;5.878;2023-03-23T00:14:59;6.40;;;1.35;;
72951;SDS011;61102;51.956;5.878;2023-03-23T00:17:27;5.18;;;1.20;;
72951;SDS011;61102;51.956;5.878;2023-03-23T00:19:53;7.72;;;1.73;;
72951;SDS011;61102;51.956;5.878;2023-03-23T00:22:20;6.40;;;1.77;;
72951;SDS011;61102;51.956;5.878;2023-03-23T00:24:47;5.95;;;1.80;;
72951;SDS011;61102;51.956;5.878;2023-03-23T00:27:16;4.68;;;1.30;;
72951;SDS011;61102;51.956;5.878;2023-03-23T00:29:43;4.15;;;1.20;;
72951;SDS011;61102;51.956;5.878;2023-03-23T00:32:10;4.47;;;1.35;;
72951;SDS011;61102;51.956;5.878;2023-03-23T00:34:40;6.25;;;1.45;;
72951;SDS011;61102;51.956;5.878;2023-03-23T00:37:08;4.90;;;1.35;;
72951;SDS011;61102;51.956;5.878;2023-03-23T00:39:35;8.32;;;1.45;;
72951;SDS011;61102;51.956;5.878;2023-03-23T00:42:04;7.00;;;1.50;;
72951;SDS011;61102;51.956;5.878;2023-03-23T00:44:31;4.72;;;1.50;;
72951;SDS011;61102;51.956;5.878;2023-03-23T00:47:00;6.72;;;1.40;;
72951;SDS011;61102;51.956;5.878;2023-03-23T00:49:27;4.28;;;1.15;;
72951;SDS011;61102;51.956;5.878;2023-03-23T00:51:54;4.07;;;1.20;;
72951;SDS011;61102;51.956;5.878;2023-03-23T00:54:23;5.57;;;1.60;;
72951;SDS011;61102;51.956;5.878;2023-03-23T00:56:50;5.72;;;1.40;;
72951;SDS011;61102;51.956;5.878;2023-03-23T00:59:17;3.60;;;1.23;;
72951;SDS011;61102;51.956;5.878;2023-03-23T01:01:43;5.28;;;1.20;;
72951;SDS011;61102;51.956;5.878;2023-03-23T01:04:10;3.35;;;1.23;;
72951;SDS011;61102;51.956;5.878;2023-03-23T01:09:09;5.80;;;1.42;;
72951;SDS011;61102;51.956;5.878;2023-03-23T01:11:40;5.70;;;1.60;;
72951;SDS011;61102;51.956;5.878;2023-03-23T01:14:08;5.45;;;1.70;;
72951;SDS011;61102;51.956;5.878;2023-03-23T01:19:01;4.95;;;1.55;;
72951;SDS011;61102;51.956;5.878;2023-03-23T01:21:27;6.05;;;1.77;;
72951;SDS011;61102;51.956;5.878;2023-03-23T01:23:53;6.75;;;1.55;;
72951;SDS011;61102;51.956;5.878;2023-03-23T01:26:24;4.13;;;1.42;;
72951;SDS011;61102;51.956;5.878;2023-03-23T01:28:51;4.68;;;1.30;;
72951;SDS011;61102;51.956;5.878;2023-03-23T01:31:19;5.43;;;1.50;;
72951;SDS011;61102;51.956;5.878;2023-03-23T01:33:47;6.57;;;1.63;;
72951;SDS011;61102;51.956;5.878;2023-03-23T01:36:14;6.80;;;1.50;;
72951;SDS011;61102;51.956;5.878;2023-03-23T01:38:44;4.65;;;1.73;;
72951;SDS011;61102;51.956;5.878;2023-03-23T01:41:12;4.93;;;1.50;;
72951;SDS011;61102;51.956;5.878;2023-03-23T01:46:33;5.57;;;1.40;;
72951;SDS011;61102;51.956;5.878;2023-03-23T01:49:06;4.30;;;1.38;;
72951;SDS011;61102;51.956;5.878;2023-03-23T01:51:37;5.60;;;1.60;;
72951;SDS011;61102;51.956;5.878;2023-03-23T01:54:07;4.88;;;1.33;;
72951;SDS011;61102;51.956;5.878;2023-03-23T01:56:38;4.43;;;1.60;;
72951;SDS011;61102;51.956;5.878;2023-03-23T01:59:07;4.50;;;1.55;;
72951;SDS011;61102;51.956;5.878;2023-03-23T02:01:35;3.85;;;1.10;;
72951;SDS011;61102;51.956;5.878;2023-03-23T02:04:04;5.25;;;1.33;;
72951;SDS011;61102;51.956;5.878;2023-03-23T02:06:31;6.25;;;1.70;;
72951;SDS011;61102;51.956;5.878;2023-03-23T02:09:10;5.47;;;1.40;;
72951;SDS011;61102;51.956;5.878;2023-03-23T02:11:39;6.85;;;1.92;;
72951;SDS011;61102;51.956;5.878;2023-03-23T02:14:06;6.10;;;1.42;;
72951;SDS011;61102;51.956;5.878;2023-03-23T02:16:36;4.53;;;1.40;;
72951;SDS011;61102;51.956;5.878;2023-03-23T02:19:27;4.72;;;1.40;;
72951;SDS011;61102;51.956;5.878;2023-03-23T02:33:29;5.25;;;1.50;;
72951;SDS011;61102;51.956;5.878;2023-03-23T02:38:46;5.95;;;1.63;;
72951;SDS011;61102;51.956;5.878;2023-03-23T02:41:18;4.60;;;1.30;;
72951;SDS011;61102;51.956;5.878;2023-03-23T02:43:47;5.32;;;1.55;;
72951;SDS011;61102;51.956;5.878;2023-03-23T02:46:15;5.97;;;1.70;;
72951;SDS011;61102;51.956;5.878;2023-03-23T02:48:42;4.78;;;1.45;;
72951;SDS011;61102;51.956;5.878;2023-03-23T02:51:11;4.50;;;1.27;;
72951;SDS011;61102;51.956;5.878;2023-03-23T02:53:39;5.90;;;1.48;;
72951;SDS011;61102;51.956;5.878;2023-03-23T02:56:09;5.47;;;1.50;;
72951;SDS011;61102;51.956;5.878;2023-03-23T02:58:37;4.88;;;1.60;;
72951;SDS011;61102;51.956;5.878;2023-03-23T03:01:13;4.97;;;1.50;;
72951;SDS011;61102;51.956;5.878;2023-03-23T03:03:54;4.80;;;1.58;;
72951;SDS011;61102;51.956;5.878;2023-03-23T03:06:30;5.70;;;1.60;;
72951;SDS011;61102;51.956;5.878;2023-03-23T03:09:10;6.35;;;1.60;;
72951;SDS011;61102;51.956;5.878;2023-03-23T03:11:59;4.47;;;1.45;;
72951;SDS011;61102;51.956;5.878;2023-03-23T03:14:37;5.40;;;1.50;;
72951;SDS011;61102;51.956;5.878;2023-03-23T03:17:13;7.00;;;1.60;;
72951;SDS011;61102;51.956;5.878;2023-03-23T03:19:50;6.22;;;1.75;;
72951;SDS011;61102;51.956;5.878;2023-03-23T03:22:23;5.13;;;1.35;;
72951;SDS011;61102;51.956;5.878;2023-03-23T03:24:55;4.75;;;1.50;;
72951;SDS011;61102;51.956;5.878;2023-03-23T03:27:23;6.55;;;1.73;;
72951;SDS011;61102;51.956;5.878;2023-03-23T03:30:03;6.57;;;1.85;;
72951;SDS011;61102;51.956;5.878;2023-03-23T03:32:38;4.45;;;1.30;;
72951;SDS011;61102;51.956;5.878;2023-03-23T03:35:09;4.97;;;1.67;;
72951;SDS011;61102;51.956;5.878;2023-03-23T03:37:38;5.70;;;1.50;;
72951;SDS011;61102;51.956;5.878;2023-03-23T03:40:06;5.07;;;1.50;;
72951;SDS011;61102;51.956;5.878;2023-03-23T03:42:40;4.38;;;1.30;;
72951;SDS011;61102;51.956;5.878;2023-03-23T03:45:09;5.15;;;1.40;;
72951;SDS011;61102;51.956;5.878;2023-03-23T03:47:39;5.18;;;1.60;;
72951;SDS011;61102;51.956;5.878;2023-03-23T03:50:05;6.90;;;1.60;;
72951;SDS011;61102;51.956;5.878;2023-03-23T03:52:33;6.80;;;1.67;;
72951;SDS011;61102;51.956;5.878;2023-03-23T03:54:59;7.32;;;1.60;;
72951;SDS011;61102;51.956;5.878;2023-03-23T03:57:26;4.18;;;1.25;;
72951;SDS011;61102;51.956;5.878;2023-03-23T04:00:12;5.70;;;1.40;;
72951;SDS011;61102;51.956;5.878;2023-03-23T04:02:45;4.38;;;1.30;;
72951;SDS011;61102;51.956;5.878;2023-03-23T04:05:17;5.75;;;1.60;;
72951;SDS011;61102;51.956;5.878;2023-03-23T04:07:46;4.53;;;1.35;;
72951;SDS011;61102;51.956;5.878;2023-03-23T04:10:18;5.10;;;1.40;;
72951;SDS011;61102;51.956;5.878;2023-03-23T04:12:49;4.50;;;1.60;;
72951;SDS011;61102;51.956;5.878;2023-03-23T04:15:54;5.00;;;1.15;;
72951;SDS011;61102;51.956;5.878;2023-03-23T04:18:20;4.65;;;1.40;;
72951;SDS011;61102;51.956;5.878;2023-03-23T04:20:48;4.20;;;1.33;;
72951;SDS011;61102;51.956;5.878;2023-03-23T04:23:17;5.28;;;1.30;;
72951;SDS011;61102;51.956;5.878;2023-03-23T04:25:50;5.47;;;1.30;;
72951;SDS011;61102;51.956;5.878;2023-03-23T04:28:18;6.43;;;1.48;;
72951;SDS011;61102;51.956;5.878;2023-03-23T04:31:08;4.53;;;1.40;;
72951;SDS011;61102;51.956;5.878;2023-03-23T04:33:36;5.20;;;1.63;;
72951;SDS011;61102;51.956;5.878;2023-03-23T04:36:03;4.72;;;1.20;;
72951;SDS011;61102;51.956;5.878;2023-03-23T04:38:36;3.97;;;1.17;;
72951;SDS011;61102;51.956;5.878;2023-03-23T04:41:11;4.85;;;1.30;;
72951;SDS011;61102;51.956;5.878;2023-03-23T04:43:54;5.05;;;1.40;;
72951;SDS011;61102;51.956;5.878;2023-03-23T04:46:33;4.10;;;0.93;;
72951;SDS011;61102;51.956;5.878;2023-03-23T04:49:06;3.63;;;1.00;;
72951;SDS011;61102;51.956;5.878;2023-03-23T04:51:35;4.70;;;1.05;;
72951;SDS011;61102;51.956;5.878;2023-03-23T04:54:15;4.93;;;1.40;;
72951;SDS011;61102;51.956;5.878;2023-03-23T04:56:47;5.60;;;1.10;;
72951;SDS011;61102;51.956;5.878;2023-03-23T04:59:14;6.43;;;1.25;;
72951;SDS011;61102;51.956;5.878;2023-03-23T05:01:48;10.15;;;1.50;;
72951;SDS011;61102;51.956;5.878;2023-03-23T05:04:17;6.38;;;1.20;;
72951;SDS011;61102;51.956;5.878;2023-03-23T05:06:53;6.47;;;1.25;;
72951;SDS011;61102;51.956;5.878;2023-03-23T05:09:25;5.80;;;1.30;;
72951;SDS011;61102;51.956;5.878;2023-03-23T05:11:51;4.57;;;1.00;;
72951;SDS011;61102;51.956;5.878;2023-03-23T05:14:17;6.18;;;1.50;;
72951;SDS011;61102;51.956;5.878;2023-03-23T05:16:51;5.70;;;1.20;;
72951;SDS011;61102;51.956;5.878;2023-03-23T05:19:18;4.18;;;0.95;;
72951;SDS011;61102;51.956;5.878;2023-03-23T05:21:45;7.97;;;1.20;;
72951;SDS011;61102;51.956;5.878;2023-03-23T05:24:11;5.40;;;0.90;;
72951;SDS011;61102;51.956;5.878;2023-03-23T05:26:38;4.90;;;0.80;;
72951;SDS011;61102;51.956;5.878;2023-03-23T05:29:14;6.45;;;1.13;;
72951;SDS011;61102;51.956;5.878;2023-03-23T05:32:04;5.63;;;0.93;;
72951;SDS011;61102;51.956;5.878;2023-03-23T05:34:34;8.75;;;1.02;;
72951;SDS011;61102;51.956;5.878;2023-03-23T05:37:02;4.82;;;0.90;;
72951;SDS011;61102;51.956;5.878;2023-03-23T05:42:47;7.20;;;1.02;;
72951;SDS011;61102;51.956;5.878;2023-03-23T05:45:17;5.50;;;0.90;;
72951;SDS011;61102;51.956;5.878;2023-03-23T05:47:47;5.38;;;0.98;;
72951;SDS011;61102;51.956;5.878;2023-03-23T05:50:18;3.92;;;0.75;;
72951;SDS011;61102;51.956;5.878;2023-03-23T05:52:44;4.15;;;0.70;;
72951;SDS011;61102;51.956;5.878;2023-03-23T05:55:13;6.32;;;0.90;;
72951;SDS011;61102;51.956;5.878;2023-03-23T05:57:42;5.07;;;0.90;;
72951;SDS011;61102;51.956;5.878;2023-03-23T06:00:34;4.97;;;1.05;;
72951;SDS011;61102;51.956;5.878;2023-03-23T06:03:15;7.15;;;1.10;;
72951;SDS011;61102;51.956;5.878;2023-03-23T06:05:57;3.22;;;0.57;;
72951;SDS011;61102;51.956;5.878;2023-03-23T06:08:31;9.00;;;1.10;;
72951;SDS011;61102;51.956;5.878;2023-03-23T06:10:57;4.55;;;0.60;;
72951;SDS011;61102;51.956;5.878;2023-03-23T06:13:23;5.18;;;0.80;;
72951;SDS011;61102;51.956;5.878;2023-03-23T06:15:56;3.35;;;0.50;;
72951;SDS011;61102;51.956;5.878;2023-03-23T06:18:46;7.28;;;1.17;;
72951;SDS011;61102;51.956;5.878;2023-03-23T06:21:32;5.95;;;0.85;;
72951;SDS011;61102;51.956;5.878;2023-03-23T06:24:21;5.00;;;0.90;;
72951;SDS011;61102;51.956;5.878;2023-03-23T06:26:48;3.28;;;0.70;;
72951;SDS011;61102;51.956;5.878;2023-03-23T06:29:18;5.60;;;0.70;;
72951;SDS011;61102;51.956;5.878;2023-03-23T06:31:50;4.60;;;0.80;;
72951;SDS011;61102;51.956;5.878;2023-03-23T06:34:21;4.57;;;0.80;;
72951;SDS011;61102;51.956;5.878;2023-03-23T06:37:06;4.88;;;0.85;;
72951;SDS011;61102;51.956;5.878;2023-03-23T06:39:42;6.25;;;0.95;;
72951;SDS011;61102;51.956;5.878;2023-03-23T06:42:18;7.18;;;1.00;;
72951;SDS011;61102;51.956;5.878;2023-03-23T06:44:50;5.35;;;0.95;;
72951;SDS011;61102;51.956;5.878;2023-03-23T06:47:17;5.80;;;0.85;;
72951;SDS011;61102;51.956;5.878;2023-03-23T06:49:47;6.28;;;0.90;;
72951;SDS011;61102;51.956;5.878;2023-03-23T06:52:19;5.03;;;1.10;;
72951;SDS011;61102;51.956;5.878;2023-03-23T06:54:49;4.57;;;0.90;;
72951;SDS011;61102;51.956;5.878;2023-03-23T06:57:15;5.35;;;0.85;;
72951;SDS011;61102;51.956;5.878;2023-03-23T06:59:44;6.60;;;0.98;;
72951;SDS011;61102;51.956;5.878;2023-03-23T07:02:12;9.93;;;1.05;;
72951;SDS011;61102;51.956;5.878;2023-03-23T07:04:44;7.05;;;1.00;;
72951;SDS011;61102;51.956;5.878;2023-03-23T07:07:22;7.63;;;0.80;;
72951;SDS011;61102;51.956;5.878;2023-03-23T07:09:53;4.53;;;1.20;;
72951;SDS011;61102;51.956;5.878;2023-03-23T07:12:22;4.43;;;0.77;;
72951;SDS011;61102;51.956;5.878;2023-03-23T07:14:50;6.45;;;1.00;;
72951;SDS011;61102;51.956;5.878;2023-03-23T07:17:16;5.75;;;0.90;;
72951;SDS011;61102;51.956;5.878;2023-03-23T07:20:04;6.93;;;1.00;;
72951;SDS011;61102;51.956;5.878;2023-03-23T07:22:32;9.73;;;1.00;;
72951;SDS011;61102;51.956;5.878;2023-03-23T07:25:07;7.20;;;0.80;;
72951;SDS011;61102;51.956;5.878;2023-03-23T07:27:45;6.65;;;0.98;;
72951;SDS011;61102;51.956;5.878;2023-03-23T07:30:12;6.13;;;0.80;;
72951;SDS011;61102;51.956;5.878;2023-03-23T07:32:40;7.65;;;1.08;;
72951;SDS011;61102;51.956;5.878;2023-03-23T07:38:36;3.67;;;0.60;;
72951;SDS011;61102;51.956;5.878;2023-03-23T07:41:02;3.25;;;0.50;;
72951;SDS011;61102;51.956;5.878;2023-03-23T07:43:30;5.97;;;0.63;;
72951;SDS011;61102;51.956;5.878;2023-03-23T07:46:16;2.58;;;0.50;;
72951;SDS011;61102;51.956;5.878;2023-03-23T07:48:56;4.22;;;0.55;;
72951;SDS011;61102;51.956;5.878;2023-03-23T07:51:29;3.70;;;0.70;;
72951;SDS011;61102;51.956;5.878;2023-03-23T07:53:55;4.53;;;0.57;;
72951;SDS011;61102;51.956;5.878;2023-03-23T07:56:57;6.82;;;0.80;;
72951;SDS011;61102;51.956;5.878;2023-03-23T07:59:30;1.95;;;0.38;;
72951;SDS011;61102;51.956;5.878;2023-03-23T08:01:58;3.45;;;0.50;;
72951;SDS011;61102;51.956;5.878;2023-03-23T08:04:44;3.33;;;0.65;;
72951;SDS011;61102;51.956;5.878;2023-03-23T08:07:33;6.38;;;1.05;;
72951;SDS011;61102;51.956;5.878;2023-03-23T08:10:06;5.78;;;0.85;;
72951;SDS011;61102;51.956;5.878;2023-03-23T08:13:09;4.00;;;0.77;;
72951;SDS011;61102;51.956;5.878;2023-03-23T08:16:01;4.43;;;0.55;;
72951;SDS011;61102;51.956;5.878;2023-03-23T08:18:47;5.55;;;0.82;;
72951;SDS011;61102;51.956;5.878;2023-03-23T08:21:34;2.92;;;0.50;;
72951;SDS011;61102;51.956;5.878;2023-03-23T08:24:25;4.60;;;0.70;;
72951;SDS011;61102;51.956;5.878;2023-03-23T08:26:52;5.32;;;0.82;;
72951;SDS011;61102;51.956;5.878;2023-03-23T08:29:35;4.93;;;0.70;;
72951;SDS011;61102;51.956;5.878;2023-03-23T08:32:21;5.53;;;0.70;;
72951;SDS011;61102;51.956;5.878;2023-03-23T08:35:07;2.72;;;0.45;;
72951;SDS011;61102;51.956;5.878;2023-03-23T08:37:47;4.53;;;0.70;;
72951;SDS011;61102;51.956;5.878;2023-03-23T08:40:34;4.50;;;0.57;;
72951;SDS011;61102;51.956;5.878;2023-03-23T08:43:20;4.43;;;0.70;;
72951;SDS011;61102;51.956;5.878;2023-03-23T08:46:10;3.80;;;0.80;;
72951;SDS011;61102;51.956;5.878;2023-03-23T08:48:49;5.93;;;0.80;;
72951;SDS011;61102;51.956;5.878;2023-03-23T08:51:46;2.38;;;0.50;;
72951;SDS011;61102;51.956;5.878;2023-03-23T08:54:36;3.88;;;0.47;;
72951;SDS011;61102;51.956;5.878;2023-03-23T08:57:17;4.88;;;0.70;;
72951;SDS011;61102;51.956;5.878;2023-03-23T08:59:58;3.83;;;0.50;;
72951;SDS011;61102;51.956;5.878;2023-03-23T09:02:41;3.33;;;0.60;;
72951;SDS011;61102;51.956;5.878;2023-03-23T09:05:21;2.78;;;0.57;;
72951;SDS011;61102;51.956;5.878;2023-03-23T09:08:02;4.63;;;0.60;;
72951;SDS011;61102;51.956;5.878;2023-03-23T09:10:29;3.10;;;0.60;;
72951;SDS011;61102;51.956;5.878;2023-03-23T09:12:58;2.17;;;0.40;;
72951;SDS011;61102;51.956;5.878;2023-03-23T09:15:24;2.40;;;0.40;;
72951;SDS011;61102;51.956;5.878;2023-03-23T09:17:50;4.10;;;0.60;;
72951;SDS011;61102;51.956;5.878;2023-03-23T09:20:20;5.10;;;0.70;;
72951;SDS011;61102;51.956;5.878;2023-03-23T09:22:51;3.17;;;0.50;;
72951;SDS011;61102;51.956;5.878;2023-03-23T09:25:19;4.50;;;0.43;;
72951;SDS011;61102;51.956;5.878;2023-03-23T09:27:50;4.47;;;0.55;;
72951;SDS011;61102;51.956;5.878;2023-03-23T09:30:19;4.53;;;0.50;;
72951;SDS011;61102;51.956;5.878;2023-03-23T09:32:46;3.85;;;0.50;;
72951;SDS011;61102;51.956;5.878;2023-03-23T09:35:14;4.50;;;0.40;;
72951;SDS011;61102;51.956;5.878;2023-03-23T09:37:42;7.22;;;1.00;;
72951;SDS011;61102;51.956;5.878;2023-03-23T09:40:11;4.93;;;0.70;;
72951;SDS011;61102;51.956;5.878;2023-03-23T09:53:46;3.67;;;0.60;;
72951;SDS011;61102;51.956;5.878;2023-03-23T09:56:17;5.22;;;0.65;;
72951;SDS011;61102;51.956;5.878;2023-03-23T10:01:25;3.28;;;0.60;;
72951;SDS011;61102;51.956;5.878;2023-03-23T10:04:09;5.60;;;0.90;;
72951;SDS011;61102;51.956;5.878;2023-03-23T10:06:39;8.07;;;0.93;;
72951;SDS011;61102;51.956;5.878;2023-03-23T10:09:05;5.43;;;0.80;;
72951;SDS011;61102;51.956;5.878;2023-03-23T10:17:22;6.53;;;0.90;;
72951;SDS011;61102;51.956;5.878;2023-03-23T10:22:39;8.45;;;1.08;;
72951;SDS011;61102;51.956;5.878;2023-03-23T10:30:33;8.55;;;1.30;;
72951;SDS011;61102;51.956;5.878;2023-03-23T10:35:45;8.52;;;0.95;;
72951;SDS011;61102;51.956;5.878;2023-03-23T10:38:22;6.53;;;1.27;;
72951;SDS011;61102;51.956;5.878;2023-03-23T10:40:56;6.53;;;1.00;;
72951;SDS011;61102;51.956;5.878;2023-03-23T10:43:26;8.13;;;1.10;;
72951;SDS011;61102;51.956;5.878;2023-03-23T10:46:00;9.05;;;1.15;;
72951;SDS011;61102;51.956;5.878;2023-03-23T10:48:33;7.13;;;1.27;;
72951;SDS011;61102;51.956;5.878;2023-03-23T10:51:04;6.45;;;1.02;;
72951;SDS011;61102;51.956;5.878;2023-03-23T10:53:35;7.53;;;0.90;;
72951;SDS011;61102;51.956;5.878;2023-03-23T10:56:03;7.22;;;1.23;;
72951;SDS011;61102;51.956;5.878;2023-03-23T10:58:34;8.30;;;1.42;;
72951;SDS011;61102;51.956;5.878;2023-03-23T11:01:02;8.68;;;1.13;;
72951;SDS011;61102;51.956;5.878;2023-03-23T11:06:07;5.82;;;1.13;;
72951;SDS011;61102;51.956;5.878;2023-03-23T11:08:38;4.72;;;0.80;;
72951;SDS011;61102;51.956;5.878;2023-03-23T11:11:26;5.55;;;0.90;;
72951;SDS011;61102;51.956;5.878;2023-03-23T11:13:57;8.38;;;1.20;;
72951;SDS011;61102;51.956;5.878;2023-03-23T11:16:27;5.00;;;0.90;;
72951;SDS011;61102;51.956;5.878;2023-03-23T11:19:00;7.85;;;1.20;;
72951;SDS011;61102;51.956;5.878;2023-03-23T11:21:37;6.18;;;1.17;;
72951;SDS011;61102;51.956;5.878;2023-03-23T11:24:04;5.53;;;0.90;;
72951;SDS011;61102;51.956;5.878;2023-03-23T11:26:32;6.85;;;1.00;;
72951;SDS011;61102;51.956;5.878;2023-03-23T11:29:19;4.97;;;0.80;;
72951;SDS011;61102;51.956;5.878;2023-03-23T11:31:50;7.90;;;1.10;;
72951;SDS011;61102;51.956;5.878;2023-03-23T11:34:20;6.78;;;1.02;;
72951;SDS011;61102;51.956;5.878;2023-03-23T11:36:49;7.30;;;1.20;;
72951;SDS011;61102;51.956;5.878;2023-03-23T11:41:46;6.65;;;1.10;;
72951;SDS011;61102;51.956;5.878;2023-03-23T11:44:12;5.32;;;1.10;;
72951;SDS011;61102;51.956;5.878;2023-03-23T11:46:44;4.53;;;0.80;;
72951;SDS011;61102;51.956;5.878;2023-03-23T11:51:59;4.55;;;0.80;;
72951;SDS011;61102;51.956;5.878;2023-03-23T11:54:34;6.22;;;1.20;;
72951;SDS011;61102;51.956;5.878;2023-03-23T11:57:06;4.43;;;0.85;;
72951;SDS011;61102;51.956;5.878;2023-03-23T11:59:37;4.97;;;0.93;;
72951;SDS011;61102;51.956;5.878;2023-03-23T12:16:02;7.07;;;1.15;;
72951;SDS011;61102;51.956;5.878;2023-03-23T12:18:40;3.85;;;0.60;;
72951;SDS011;61102;51.956;5.878;2023-03-23T12:26:54;4.45;;;0.70;;
72951;SDS011;61102;51.956;5.878;2023-03-23T12:37:12;4.50;;;0.60;;
72951;SDS011;61102;51.956;5.878;2023-03-23T12:48:11;4.18;;;0.95;;
72951;SDS011;61102;51.956;5.878;2023-03-23T12:50:44;4.10;;;0.80;;
72951;SDS011;61102;51.956;5.878;2023-03-23T12:53:32;6.82;;;0.90;;
72951;SDS011;61102;51.956;5.878;2023-03-23T12:58:43;4.38;;;0.70;;
72951;SDS011;61102;51.956;5.878;2023-03-23T13:01:14;5.65;;;1.00;;
72951;SDS011;61102;51.956;5.878;2023-03-23T13:03:58;4.50;;;0.90;;
72951;SDS011;61102;51.956;5.878;2023-03-23T13:06:37;3.97;;;0.77;;
72951;SDS011;61102;51.956;5.878;2023-03-23T13:09:14;2.35;;;0.65;;
72951;SDS011;61102;51.956;5.878;2023-03-23T13:11:54;3.20;;;0.60;;
72951;SDS011;61102;51.956;5.878;2023-03-23T13:20:32;2.38;;;0.50;;
72951;SDS011;61102;51.956;5.878;2023-03-23T13:28:04;4.65;;;0.60;;
72951;SDS011;61102;51.956;5.878;2023-03-23T13:30:30;3.30;;;0.60;;
72951;SDS011;61102;51.956;5.878;2023-03-23T13:33:06;4.45;;;0.90;;
72951;SDS011;61102;51.956;5.878;2023-03-23T13:35:37;3.35;;;0.50;;
72951;SDS011;61102;51.956;5.878;2023-03-23T13:38:15;2.10;;;0.50;;
72951;SDS011;61102;51.956;5.878;2023-03-23T13:40:53;3.85;;;0.60;;
72951;SDS011;61102;51.956;5.878;2023-03-23T13:43:28;3.60;;;0.43;;
72951;SDS011;61102;51.956;5.878;2023-03-23T13:46:07;2.35;;;0.47;;
72951;SDS011;61102;51.956;5.878;2023-03-23T13:49:20;1.67;;;0.50;;
72951;SDS011;61102;51.956;5.878;2023-03-23T13:56:55;3.10;;;0.57;;
72951;SDS011;61102;51.956;5.878;2023-03-23T14:05:08;2.70;;;0.50;;
72951;SDS011;61102;51.956;5.878;2023-03-23T14:07:57;2.50;;;0.50;;
72951;SDS011;61102;51.956;5.878;2023-03-23T14:13:18;4.95;;;0.70;;
72951;SDS011;61102;51.956;5.878;2023-03-23T14:18:53;2.72;;;0.50;;
72951;SDS011;61102;51.956;5.878;2023-03-23T14:21:26;1.35;;;0.38;;
72951;SDS011;61102;51.956;5.878;2023-03-23T14:24:10;4.38;;;0.63;;
72951;SDS011;61102;51.956;5.878;2023-03-23T14:26:40;4.72;;;0.60;;
72951;SDS011;61102;51.956;5.878;2023-03-23T14:29:09;3.83;;;0.52;;
72951;SDS011;61102;51.956;5.878;2023-03-23T14:31:37;2.70;;;0.60;;
72951;SDS011;61102;51.956;5.878;2023-03-23T14:34:19;2.80;;;0.55;;
72951;SDS011;61102;51.956;5.878;2023-03-23T14:36:47;2.92;;;0.52;;
72951;SDS011;61102;51.956;5.878;2023-03-23T14:39:20;3.97;;;0.73;;
72951;SDS011;61102;51.956;5.878;2023-03-23T14:41:50;7.28;;;0.77;;
72951;SDS011;61102;51.956;5.878;2023-03-23T14:44:23;3.33;;;0.50;;
72951;SDS011;61102;51.956;5.878;2023-03-23T14:46:53;4.70;;;0.63;;
72951;SDS011;61102;51.956;5.878;2023-03-23T14:49:25;3.45;;;0.70;;
72951;SDS011;61102;51.956;5.878;2023-03-23T14:52:16;3.33;;;0.73;;
72951;SDS011;61102;51.956;5.878;2023-03-23T14:54:44;4.55;;;0.80;;
72951;SDS011;61102;51.956;5.878;2023-03-23T15:00:14;3.25;;;0.65;;
72951;SDS011;61102;51.956;5.878;2023-03-23T15:02:43;4.65;;;0.70;;
72951;SDS011;61102;51.956;5.878;2023-03-23T15:05:16;4.15;;;0.68;;
72951;SDS011;61102;51.956;5.878;2023-03-23T15:07:54;5.47;;;1.05;;
72951;SDS011;61102;51.956;5.878;2023-03-23T15:10:25;5.50;;;0.80;;
72951;SDS011;61102;51.956;5.878;2023-03-23T15:12:51;3.15;;;0.50;;
72951;SDS011;61102;51.956;5.878;2023-03-23T15:17:57;3.45;;;0.50;;
72951;SDS011;61102;51.956;5.878;2023-03-23T15:20:26;4.28;;;0.68;;
72951;SDS011;61102;51.956;5.878;2023-03-23T15:22:53;4.95;;;0.85;;
72951;SDS011;61102;51.956;5.878;2023-03-23T15:25:21;2.20;;;0.55;;
72951;SDS011;61102;51.956;5.878;2023-03-23T15:27:52;5.30;;;0.63;;
72951;SDS011;61102;51.956;5.878;2023-03-23T15:32:49;5.18;;;0.70;;
72951;SDS011;61102;51.956;5.878;2023-03-23T15:35:19;5.75;;;0.95;;
72951;SDS011;61102;51.956;5.878;2023-03-23T15:37:48;6.63;;;0.80;;
72951;SDS011;61102;51.956;5.878;2023-03-23T15:40:21;6.28;;;1.10;;
72951;SDS011;61102;51.956;5.878;2023-03-23T15:42:49;7.03;;;0.90;;
72951;SDS011;61102;51.956;5.878;2023-03-23T15:45:30;5.68;;;0.70;;
72951;SDS011;61102;51.956;5.878;2023-03-23T15:47:57;5.55;;;0.80;;
72951;SDS011;61102;51.956;5.878;2023-03-23T15:50:36;5.03;;;0.70;;
72951;SDS011;61102;51.956;5.878;2023-03-23T15:53:15;5.72;;;0.70;;
72951;SDS011;61102;51.956;5.878;2023-03-23T15:55:54;10.45;;;0.80;;
72951;SDS011;61102;51.956;5.878;2023-03-23T15:58:20;4.90;;;0.82;;
72951;SDS011;61102;51.956;5.878;2023-03-23T16:00:47;6.95;;;0.82;;
72951;SDS011;61102;51.956;5.878;2023-03-23T16:03:19;4.85;;;0.68;;
72951;SDS011;61102;51.956;5.878;2023-03-23T16:05:54;5.40;;;0.80;;
72951;SDS011;61102;51.956;5.878;2023-03-23T16:08:25;5.72;;;1.13;;
72951;SDS011;61102;51.956;5.878;2023-03-23T16:10:51;4.63;;;0.63;;
72951;SDS011;61102;51.956;5.878;2023-03-23T16:13:17;5.80;;;1.10;;
72951;SDS011;61102;51.956;5.878;2023-03-23T16:15:43;6.13;;;0.77;;
72951;SDS011;61102;51.956;5.878;2023-03-23T16:18:18;7.28;;;0.90;;
72951;SDS011;61102;51.956;5.878;2023-03-23T16:20:47;5.32;;;0.70;;
72951;SDS011;61102;51.956;5.878;2023-03-23T16:23:14;4.90;;;0.77;;
72951;SDS011;61102;51.956;5.878;2023-03-23T16:25:40;4.80;;;0.70;;
72951;SDS011;61102;51.956;5.878;2023-03-23T16:28:08;5.47;;;0.70;;
72951;SDS011;61102;51.956;5.878;2023-03-23T16:30:37;5.07;;;0.80;;
72951;SDS011;61102;51.956;5.878;2023-03-23T16:33:03;6.05;;;1.00;;
72951;SDS011;61102;51.956;5.878;2023-03-23T16:35:29;6.32;;;0.75;;
72951;SDS011;61102;51.956;5.878;2023-03-23T16:37:56;6.40;;;0.77;;
72951;SDS011;61102;51.956;5.878;2023-03-23T16:40:23;5.00;;;0.80;;
72951;SDS011;61102;51.956;5.878;2023-03-23T16:42:49;5.95;;;1.23;;
72951;SDS011;61102;51.956;5.878;2023-03-23T16:45:15;6.80;;;1.00;;
72951;SDS011;61102;51.956;5.878;2023-03-23T16:47:42;5.72;;;0.90;;
72951;SDS011;61102;51.956;5.878;2023-03-23T16:50:09;5.07;;;0.82;;
72951;SDS011;61102;51.956;5.878;2023-03-23T16:52:42;5.70;;;0.80;;
72951;SDS011;61102;51.956;5.878;2023-03-23T16:55:10;4.50;;;0.80;;
72951;SDS011;61102;51.956;5.878;2023-03-23T16:57:37;7.20;;;1.13;;
72951;SDS011;61102;51.956;5.878;2023-03-23T17:00:04;5.90;;;1.10;;
72951;SDS011;61102;51.956;5.878;2023-03-23T17:02:33;5.47;;;0.80;;
72951;SDS011;61102;51.956;5.878;2023-03-23T17:05:00;5.88;;;1.23;;
72951;SDS011;61102;51.956;5.878;2023-03-23T17:07:27;7.20;;;1.45;;
72951;SDS011;61102;51.956;5.878;2023-03-23T17:09:53;5.00;;;0.80;;
72951;SDS011;61102;51.956;5.878;2023-03-23T17:12:19;3.50;;;0.70;;
72951;SDS011;61102;51.956;5.878;2023-03-23T17:14:45;6.38;;;0.80;;
72951;SDS011;61102;51.956;5.878;2023-03-23T17:17:11;5.68;;;0.90;;
72951;SDS011;61102;51.956;5.878;2023-03-23T17:19:38;6.93;;;1.00;;
72951;SDS011;61102;51.956;5.878;2023-03-23T17:22:04;3.75;;;0.70;;
72951;SDS011;61102;51.956;5.878;2023-03-23T17:24:30;5.63;;;0.88;;
72951;SDS011;61102;51.956;5.878;2023-03-23T17:26:56;6.80;;;0.80;;
72951;SDS011;61102;51.956;5.878;2023-03-23T17:29:25;5.18;;;0.82;;
72951;SDS011;61102;51.956;5.878;2023-03-23T17:31:51;5.82;;;0.80;;
72951;SDS011;61102;51.956;5.878;2023-03-23T17:34:17;4.30;;;0.70;;
72951;SDS011;61102;51.956;5.878;2023-03-23T17:36:44;5.90;;;0.90;;
72951;SDS011;61102;51.956;5.878;2023-03-23T17:39:10;6.68;;;0.80;;